sensor_id;sensor_type;location;lat;lon;timestamp;P1;P2;P0
77692;PMS5003;66984;47.404;18.836;2023-04-03T00:00:13;8.00;7.00;3.75
77692;PMS5003;66984;47.404;18.836;2023-04-03T00:01:17;8.00;6.00;4.00
77692;PMS5003;66984;47.404;18.836;2023-04-03T00:02:21;6.25;5.50;3.00
77692;PMS5003;66984;47.404;18.836;2023-04-03T00:03:24;7.00;5.00;3.00
77692;PMS5003;66984;47.404;18.836;2023-04-03T00:04:27;6.00;5.00;3.00
77692;PMS5003;66984;47.404;18.836;2023-04-03T00:05:30;6.50;6.00;2.75
77692;PMS5003;66984;47.404;18.836;2023-04-03T00:06:33;7.25;5.25;2.00
77692;PMS5003;66984;47.404;18.836;2023-04-03T00:07:36;5.00;5.00;3.00
77692;PMS5003;66984;47.404;18.836;2023-04-03T00:08:39;5.00;5.00;3.00
77692;PMS5003;66984;47.404;18.836;2023-04-03T00:09:42;7.00;7.00;4.00
77692;PMS5003;66984;47.404;18.836;2023-04-03T00:10:45;6.00;6.00;3.00
77692;PMS5003;66984;47.404;18.836;2023-04-03T00:11:49;7.75;7.75;3.00
77692;PMS5003;66984;47.404;18.836;2023-04-03T00:12:52;4.00;4.00;1.00
77692;PMS5003;66984;47.404;18.836;2023-04-03T00:13:55;4.00;4.00;1.00
77692;PMS5003;66984;47.404;18.836;2023-04-03T00:14:58;5.00;5.00;1.00
77692;PMS5003;66984;47.404;18.836;2023-04-03T00:16:01;5.00;4.00;2.00
77692;PMS5003;66984;47.404;18.836;2023-04-03T00:17:05;6.00;6.00;1.00
77692;PMS5003;66984;47.404;18.836;2023-04-03T00:18:08;6.50;6.25;3.00
77692;PMS5003;66984;47.404;18.836;2023-04-03T00:19:12;6.00;6.00;1.00
77692;PMS5003;66984;47.404;18.836;2023-04-03T00:20:15;5.00;4.00;1.00
77692;PMS5003;66984;47.404;18.836;2023-04-03T00:21:18;6.00;5.00;1.00
77692;PMS5003;66984;47.404;18.836;2023-04-03T00:22:21;4.25;4.25;2.00
77692;PMS5003;66984;47.404;18.836;2023-04-03T00:23:24;4.25;4.00;1.00
77692;PMS5003;66984;47.404;18.836;2023-04-03T00:24:27;6.75;6.25;3.00
77692;PMS5003;66984;47.404;18.836;2023-04-03T00:25:30;6.00;6.00;2.00
77692;PMS5003;66984;47.404;18.836;2023-04-03T00:26:33;6.50;5.00;2.00
77692;PMS5003;66984;47.404;18.836;2023-04-03T00:27:37;6.25;5.00;1.25
77692;PMS5003;66984;47.404;18.836;2023-04-03T00:28:40;5.25;4.00;2.00
77692;PMS5003;66984;47.404;18.836;2023-04-03T00:29:43;5.50;5.00;2.25
77692;PMS5003;66984;47.404;18.836;2023-04-03T00:30:46;7.00;6.00;2.00
77692;PMS5003;66984;47.404;18.836;2023-04-03T00:31:50;6.00;4.00;2.00
77692;PMS5003;66984;47.404;18.836;2023-04-03T00:32:53;5.25;4.25;1.00
77692;PMS5003;66984;47.404;18.836;2023-04-03T00:33:57;5.25;5.25;2.00
77692;PMS5003;66984;47.404;18.836;2023-04-03T00:35:00;4.00;4.00;1.00
77692;PMS5003;66984;47.404;18.836;2023-04-03T00:36:09;4.75;4.75;1.00
77692;PMS5003;66984;47.404;18.836;2023-04-03T00:37:13;4.00;4.00;2.00
77692;PMS5003;66984;47.404;18.836;2023-04-03T00:38:17;6.00;6.00;3.00
77692;PMS5003;66984;47.404;18.836;2023-04-03T00:39:20;4.00;4.00;2.00
77692;PMS5003;66984;47.404;18.836;2023-04-03T00:40:24;5.75;5.25;1.00
77692;PMS5003;66984;47.404;18.836;2023-04-03T00:41:29;4.25;4.00;2.00
77692;PMS5003;66984;47.404;18.836;2023-04-03T00:42:32;5.00;4.00;1.00
77692;PMS5003;66984;47.404;18.836;2023-04-03T00:43:35;4.00;4.00;2.00
77692;PMS5003;66984;47.404;18.836;2023-04-03T00:45:44;7.75;7.00;1.00
77692;PMS5003;66984;47.404;18.836;2023-04-03T00:46:52;6.00;6.00;1.00
77692;PMS5003;66984;47.404;18.836;2023-04-03T00:47:55;4.00;4.00;1.00
77692;PMS5003;66984;47.404;18.836;2023-04-03T00:49:00;4.00;4.00;0.00
77692;PMS5003;66984;47.404;18.836;2023-04-03T00:50:03;4.00;4.00;0.00
77692;PMS5003;66984;47.404;18.836;2023-04-03T00:51:07;4.25;4.00;1.00
77692;PMS5003;66984;47.404;18.836;2023-04-03T00:52:16;4.00;4.00;1.00
77692;PMS5003;66984;47.404;18.836;2023-04-03T00:53:23;4.50;4.00;1.00
77692;PMS5003;66984;47.404;18.836;2023-04-03T00:54:44;4.00;4.00;1.00
77692;PMS5003;66984;47.404;18.836;2023-04-03T00:55:50;4.00;4.00;2.00
77692;PMS5003;66984;47.404;18.836;2023-04-03T00:56:55;4.00;4.00;2.00
77692;PMS5003;66984;47.404;18.836;2023-04-03T00:58:00;4.00;4.00;1.00
77692;PMS5003;66984;47.404;18.836;2023-04-03T00:59:06;5.00;4.00;2.00
77692;PMS5003;66984;47.404;18.836;2023-04-03T01:00:13;4.25;4.00;1.00
77692;PMS5003;66984;47.404;18.836;2023-04-03T01:01:20;5.00;4.00;1.00
77692;PMS5003;66984;47.404;18.836;2023-04-03T01:02:26;5.00;4.00;1.25
77692;PMS5003;66984;47.404;18.836;2023-04-03T01:03:29;4.00;4.00;0.00
77692;PMS5003;66984;47.404;18.836;2023-04-03T01:04:35;4.00;4.00;0.00
77692;PMS5003;66984;47.404;18.836;2023-04-03T01:05:42;4.00;3.00;0.00
77692;PMS5003;66984;47.404;18.836;2023-04-03T01:06:45;4.00;4.00;0.00
77692;PMS5003;66984;47.404;18.836;2023-04-03T01:07:48;4.00;4.00;1.00
77692;PMS5003;66984;47.404;18.836;2023-04-03T01:08:53;4.00;4.00;1.00
77692;PMS5003;66984;47.404;18.836;2023-04-03T01:09:58;4.00;3.00;1.00
77692;PMS5003;66984;47.404;18.836;2023-04-03T01:11:03;4.00;4.00;1.00
77692;PMS5003;66984;47.404;18.836;2023-04-03T01:12:42;4.00;4.00;1.00
77692;PMS5003;66984;47.404;18.836;2023-04-03T01:13:37;4.00;4.00;1.00
77692;PMS5003;66984;47.404;18.836;2023-04-03T01:14:40;5.00;4.00;1.00
77692;PMS5003;66984;47.404;18.836;2023-04-03T01:15:45;3.00;2.00;0.00
77692;PMS5003;66984;47.404;18.836;2023-04-03T01:16:54;4.00;4.00;0.00
77692;PMS5003;66984;47.404;18.836;2023-04-03T01:17:57;5.00;4.00;1.00
77692;PMS5003;66984;47.404;18.836;2023-04-03T01:19:01;5.00;4.25;0.00
77692;PMS5003;66984;47.404;18.836;2023-04-03T01:23:32;3.25;3.25;1.00
77692;PMS5003;66984;47.404;18.836;2023-04-03T01:24:42;3.00;3.00;1.00
77692;PMS5003;66984;47.404;18.836;2023-04-03T01:25:46;3.00;3.00;0.00
77692;PMS5003;66984;47.404;18.836;2023-04-03T01:26:57;4.00;4.00;0.00
77692;PMS5003;66984;47.404;18.836;2023-04-03T01:28:01;4.00;4.00;0.00
77692;PMS5003;66984;47.404;18.836;2023-04-03T01:29:03;4.00;4.00;0.75
77692;PMS5003;66984;47.404;18.836;2023-04-03T01:30:07;4.25;4.00;1.00
77692;PMS5003;66984;47.404;18.836;2023-04-03T01:31:12;4.00;4.00;1.00
77692;PMS5003;66984;47.404;18.836;2023-04-03T01:32:33;4.00;4.00;0.50
77692;PMS5003;66984;47.404;18.836;2023-04-03T01:33:37;5.00;4.00;1.00
77692;PMS5003;66984;47.404;18.836;2023-04-03T01:34:40;3.75;3.25;0.00
77692;PMS5003;66984;47.404;18.836;2023-04-03T01:35:43;4.00;4.00;1.00
77692;PMS5003;66984;47.404;18.836;2023-04-03T01:36:46;4.00;3.00;1.00
77692;PMS5003;66984;47.404;18.836;2023-04-03T01:37:49;4.00;3.00;0.00
77692;PMS5003;66984;47.404;18.836;2023-04-03T01:38:52;4.00;3.00;0.00
77692;PMS5003;66984;47.404;18.836;2023-04-03T01:39:56;3.00;3.00;0.00
77692;PMS5003;66984;47.404;18.836;2023-04-03T01:40:59;4.00;4.00;0.00
77692;PMS5003;66984;47.404;18.836;2023-04-03T01:42:02;4.00;4.00;0.00
77692;PMS5003;66984;47.404;18.836;2023-04-03T01:43:06;4.00;4.00;0.00
77692;PMS5003;66984;47.404;18.836;2023-04-03T01:44:09;4.00;4.00;1.00
77692;PMS5003;66984;47.404;18.836;2023-04-03T01:45:12;4.00;4.00;1.00
77692;PMS5003;66984;47.404;18.836;2023-04-03T01:46:16;4.00;4.00;1.00
77692;PMS5003;66984;47.404;18.836;2023-04-03T01:47:19;4.00;4.00;0.00
77692;PMS5003;66984;47.404;18.836;2023-04-03T01:48:22;3.25;3.00;0.00
77692;PMS5003;66984;47.404;18.836;2023-04-03T01:49:25;3.25;3.25;1.00
77692;PMS5003;66984;47.404;18.836;2023-04-03T01:50:28;3.00;2.00;1.00
77692;PMS5003;66984;47.404;18.836;2023-04-03T01:51:31;4.00;4.00;1.00
77692;PMS5003;66984;47.404;18.836;2023-04-03T01:52:35;3.00;3.00;1.00
77692;PMS5003;66984;47.404;18.836;2023-04-03T01:53:38;4.00;3.00;0.00
77692;PMS5003;66984;47.404;18.836;2023-04-03T01:54:41;4.00;4.00;1.00
77692;PMS5003;66984;47.404;18.836;2023-04-03T01:55:44;4.00;4.00;0.00
77692;PMS5003;66984;47.404;18.836;2023-04-03T01:56:47;4.00;4.00;0.00
77692;PMS5003;66984;47.404;18.836;2023-04-03T01:57:50;4.00;4.00;0.00
77692;PMS5003;66984;47.404;18.836;2023-04-03T01:58:52;3.00;3.00;0.00
77692;PMS5003;66984;47.404;18.836;2023-04-03T01:59:56;3.00;2.00;0.00
77692;PMS5003;66984;47.404;18.836;2023-04-03T02:00:58;3.75;3.75;0.00
77692;PMS5003;66984;47.404;18.836;2023-04-03T02:02:01;4.00;4.00;0.00
77692;PMS5003;66984;47.404;18.836;2023-04-03T02:03:05;4.00;4.00;0.00
77692;PMS5003;66984;47.404;18.836;2023-04-03T02:04:09;4.00;4.00;0.00
77692;PMS5003;66984;47.404;18.836;2023-04-03T02:05:12;3.00;3.00;0.00
77692;PMS5003;66984;47.404;18.836;2023-04-03T02:06:15;4.00;4.00;0.00
77692;PMS5003;66984;47.404;18.836;2023-04-03T02:07:18;3.00;3.00;0.00
77692;PMS5003;66984;47.404;18.836;2023-04-03T02:08:21;4.00;4.00;0.00
77692;PMS5003;66984;47.404;18.836;2023-04-03T02:09:24;4.00;4.00;0.00
77692;PMS5003;66984;47.404;18.836;2023-04-03T02:10:26;2.75;2.75;0.00
77692;PMS5003;66984;47.404;18.836;2023-04-03T02:11:30;3.00;3.00;0.75
77692;PMS5003;66984;47.404;18.836;2023-04-03T02:12:33;4.00;4.00;2.00
77692;PMS5003;66984;47.404;18.836;2023-04-03T02:13:36;4.00;4.00;1.00
77692;PMS5003;66984;47.404;18.836;2023-04-03T02:14:39;4.00;4.00;1.00
77692;PMS5003;66984;47.404;18.836;2023-04-03T02:15:42;5.00;4.00;1.50
77692;PMS5003;66984;47.404;18.836;2023-04-03T02:16:45;3.75;3.50;1.00
77692;PMS5003;66984;47.404;18.836;2023-04-03T02:17:48;3.75;3.75;2.00
77692;PMS5003;66984;47.404;18.836;2023-04-03T02:18:51;3.75;3.00;1.00
77692;PMS5003;66984;47.404;18.836;2023-04-03T02:19:53;4.00;4.00;0.00
77692;PMS5003;66984;47.404;18.836;2023-04-03T02:20:57;4.50;4.50;1.00
77692;PMS5003;66984;47.404;18.836;2023-04-03T02:21:59;4.00;4.00;1.00
77692;PMS5003;66984;47.404;18.836;2023-04-03T02:23:03;4.00;3.50;1.00
77692;PMS5003;66984;47.404;18.836;2023-04-03T02:24:06;4.00;4.00;1.00
77692;PMS5003;66984;47.404;18.836;2023-04-03T02:25:09;5.00;5.00;1.00
77692;PMS5003;66984;47.404;18.836;2023-04-03T02:26:14;4.00;4.00;1.00
77692;PMS5003;66984;47.404;18.836;2023-04-03T02:27:18;4.00;4.00;2.00
77692;PMS5003;66984;47.404;18.836;2023-04-03T02:28:21;5.25;4.75;1.00
77692;PMS5003;66984;47.404;18.836;2023-04-03T02:29:24;4.00;4.00;1.00
77692;PMS5003;66984;47.404;18.836;2023-04-03T02:30:27;3.00;3.00;0.00
77692;PMS5003;66984;47.404;18.836;2023-04-03T02:31:30;4.00;4.00;0.00
77692;PMS5003;66984;47.404;18.836;2023-04-03T02:32:33;4.00;4.00;1.00
77692;PMS5003;66984;47.404;18.836;2023-04-03T02:33:36;6.00;4.25;1.00
77692;PMS5003;66984;47.404;18.836;2023-04-03T02:34:39;4.00;3.25;0.00
77692;PMS5003;66984;47.404;18.836;2023-04-03T02:35:42;4.00;4.00;0.00
77692;PMS5003;66984;47.404;18.836;2023-04-03T02:36:45;4.00;4.00;2.00
77692;PMS5003;66984;47.404;18.836;2023-04-03T02:37:48;5.00;4.00;1.00
77692;PMS5003;66984;47.404;18.836;2023-04-03T02:38:51;4.00;4.00;1.00
77692;PMS5003;66984;47.404;18.836;2023-04-03T02:39:54;4.00;4.00;0.00
77692;PMS5003;66984;47.404;18.836;2023-04-03T02:41:00;4.00;4.00;0.00
77692;PMS5003;66984;47.404;18.836;2023-04-03T02:42:04;4.00;4.00;1.00
77692;PMS5003;66984;47.404;18.836;2023-04-03T02:43:07;4.00;4.00;1.00
77692;PMS5003;66984;47.404;18.836;2023-04-03T02:44:10;4.00;4.00;1.00
77692;PMS5003;66984;47.404;18.836;2023-04-03T02:45:13;4.25;4.25;0.00
77692;PMS5003;66984;47.404;18.836;2023-04-03T02:46:16;4.00;4.00;1.00
77692;PMS5003;66984;47.404;18.836;2023-04-03T02:47:19;4.00;3.00;1.00
77692;PMS5003;66984;47.404;18.836;2023-04-03T02:48:24;5.75;4.25;1.00
77692;PMS5003;66984;47.404;18.836;2023-04-03T02:49:27;3.00;2.00;1.00
77692;PMS5003;66984;47.404;18.836;2023-04-03T02:50:30;4.00;3.75;0.00
77692;PMS5003;66984;47.404;18.836;2023-04-03T02:51:33;4.00;4.00;0.00
77692;PMS5003;66984;47.404;18.836;2023-04-03T02:52:36;5.00;5.00;2.00
77692;PMS5003;66984;47.404;18.836;2023-04-03T02:53:39;5.00;5.00;2.00
77692;PMS5003;66984;47.404;18.836;2023-04-03T02:54:42;4.00;4.00;2.00
77692;PMS5003;66984;47.404;18.836;2023-04-03T02:55:45;4.25;4.00;2.00
77692;PMS5003;66984;47.404;18.836;2023-04-03T02:56:49;6.00;6.00;3.00
77692;PMS5003;66984;47.404;18.836;2023-04-03T02:57:53;6.25;5.00;1.75
77692;PMS5003;66984;47.404;18.836;2023-04-03T02:58:56;5.50;4.00;1.00
77692;PMS5003;66984;47.404;18.836;2023-04-03T02:59:59;5.25;4.25;1.00
77692;PMS5003;66984;47.404;18.836;2023-04-03T03:01:02;4.00;4.00;1.00
77692;PMS5003;66984;47.404;18.836;2023-04-03T03:02:08;5.00;4.00;1.00
77692;PMS5003;66984;47.404;18.836;2023-04-03T03:03:11;4.00;4.00;1.00
77692;PMS5003;66984;47.404;18.836;2023-04-03T03:04:16;5.00;4.00;1.00
77692;PMS5003;66984;47.404;18.836;2023-04-03T03:05:19;5.50;4.25;2.00
77692;PMS5003;66984;47.404;18.836;2023-04-03T03:06:22;6.00;5.75;2.00
77692;PMS5003;66984;47.404;18.836;2023-04-03T03:07:25;5.50;4.50;2.00
77692;PMS5003;66984;47.404;18.836;2023-04-03T03:08:28;4.50;4.50;2.00
77692;PMS5003;66984;47.404;18.836;2023-04-03T03:09:31;4.00;4.00;1.50
77692;PMS5003;66984;47.404;18.836;2023-04-03T03:10:34;4.00;4.00;2.00
77692;PMS5003;66984;47.404;18.836;2023-04-03T03:11:38;5.00;4.25;1.00
77692;PMS5003;66984;47.404;18.836;2023-04-03T03:12:41;5.50;5.00;1.25
77692;PMS5003;66984;47.404;18.836;2023-04-03T03:13:44;4.00;4.00;2.00
77692;PMS5003;66984;47.404;18.836;2023-04-03T03:14:47;5.00;5.00;2.00
77692;PMS5003;66984;47.404;18.836;2023-04-03T03:15:50;7.00;7.00;2.00
77692;PMS5003;66984;47.404;18.836;2023-04-03T03:16:53;5.00;5.00;2.75
77692;PMS5003;66984;47.404;18.836;2023-04-03T03:17:56;5.00;4.25;1.00
77692;PMS5003;66984;47.404;18.836;2023-04-03T03:18:59;6.00;4.00;2.00
77692;PMS5003;66984;47.404;18.836;2023-04-03T03:20:03;4.00;4.00;1.00
77692;PMS5003;66984;47.404;18.836;2023-04-03T03:21:08;4.00;4.00;1.00
77692;PMS5003;66984;47.404;18.836;2023-04-03T03:22:13;5.50;5.00;2.00
77692;PMS5003;66984;47.404;18.836;2023-04-03T03:23:16;5.00;4.00;2.00
77692;PMS5003;66984;47.404;18.836;2023-04-03T03:24:18;5.50;4.25;1.00
77692;PMS5003;66984;47.404;18.836;2023-04-03T03:25:21;5.00;4.00;1.00
77692;PMS5003;66984;47.404;18.836;2023-04-03T03:26:24;6.00;4.25;1.00
77692;PMS5003;66984;47.404;18.836;2023-04-03T03:27:27;5.00;5.00;3.00
77692;PMS5003;66984;47.404;18.836;2023-04-03T03:28:31;4.00;4.00;1.00
77692;PMS5003;66984;47.404;18.836;2023-04-03T03:29:34;5.00;4.00;1.00
77692;PMS5003;66984;47.404;18.836;2023-04-03T03:30:37;4.00;4.00;2.00
77692;PMS5003;66984;47.404;18.836;2023-04-03T03:31:40;4.00;4.00;2.00
77692;PMS5003;66984;47.404;18.836;2023-04-03T03:32:43;4.50;4.50;1.00
77692;PMS5003;66984;47.404;18.836;2023-04-03T03:33:46;7.00;7.00;1.00
77692;PMS5003;66984;47.404;18.836;2023-04-03T03:34:49;5.00;5.00;0.00
77692;PMS5003;66984;47.404;18.836;2023-04-03T03:35:53;6.00;6.00;0.00
77692;PMS5003;66984;47.404;18.836;2023-04-03T03:36:57;6.00;5.00;1.75
77692;PMS5003;66984;47.404;18.836;2023-04-03T03:38:00;4.25;4.25;2.00
77692;PMS5003;66984;47.404;18.836;2023-04-03T03:39:03;4.00;4.00;1.00
77692;PMS5003;66984;47.404;18.836;2023-04-03T03:40:06;5.00;5.00;1.00
77692;PMS5003;66984;47.404;18.836;2023-04-03T03:41:09;4.00;4.00;1.00
77692;PMS5003;66984;47.404;18.836;2023-04-03T03:42:12;4.00;4.00;0.00
77692;PMS5003;66984;47.404;18.836;2023-04-03T03:43:16;4.75;4.75;0.00
77692;PMS5003;66984;47.404;18.836;2023-04-03T03:44:19;4.75;4.00;1.00
77692;PMS5003;66984;47.404;18.836;2023-04-03T03:45:22;5.00;4.00;2.00
77692;PMS5003;66984;47.404;18.836;2023-04-03T03:46:25;4.00;4.00;1.00
77692;PMS5003;66984;47.404;18.836;2023-04-03T03:47:28;4.50;4.50;1.00
77692;PMS5003;66984;47.404;18.836;2023-04-03T03:48:31;4.00;4.00;1.00
77692;PMS5003;66984;47.404;18.836;2023-04-03T03:49:34;4.00;4.00;0.75
77692;PMS5003;66984;47.404;18.836;2023-04-03T03:50:37;6.00;5.50;1.00
77692;PMS5003;66984;47.404;18.836;2023-04-03T03:51:40;4.25;4.00;1.00
77692;PMS5003;66984;47.404;18.836;2023-04-03T03:52:43;5.00;4.00;1.75
77692;PMS5003;66984;47.404;18.836;2023-04-03T03:53:47;4.75;4.00;1.00
77692;PMS5003;66984;47.404;18.836;2023-04-03T03:54:50;6.00;6.00;2.00
77692;PMS5003;66984;47.404;18.836;2023-04-03T03:55:52;5.25;5.25;2.00
77692;PMS5003;66984;47.404;18.836;2023-04-03T03:56:55;4.25;4.00;1.00
77692;PMS5003;66984;47.404;18.836;2023-04-03T03:57:58;4.00;4.00;1.00
77692;PMS5003;66984;47.404;18.836;2023-04-03T03:59:02;4.00;4.00;1.00
77692;PMS5003;66984;47.404;18.836;2023-04-03T04:00:05;4.75;4.00;1.00
77692;PMS5003;66984;47.404;18.836;2023-04-03T04:01:09;4.00;4.00;1.00
77692;PMS5003;66984;47.404;18.836;2023-04-03T04:02:12;4.00;4.00;0.00
77692;PMS5003;66984;47.404;18.836;2023-04-03T04:03:15;4.00;4.00;0.00
77692;PMS5003;66984;47.404;18.836;2023-04-03T04:04:18;4.00;4.00;2.00
77692;PMS5003;66984;47.404;18.836;2023-04-03T04:05:21;4.50;4.50;2.25
77692;PMS5003;66984;47.404;18.836;2023-04-03T04:06:25;5.00;4.00;2.00
77692;PMS5003;66984;47.404;18.836;2023-04-03T04:07:28;4.00;4.00;2.00
77692;PMS5003;66984;47.404;18.836;2023-04-03T04:08:31;5.00;4.25;2.00
77692;PMS5003;66984;47.404;18.836;2023-04-03T04:09:34;5.00;5.00;2.00
77692;PMS5003;66984;47.404;18.836;2023-04-03T04:10:37;6.00;5.25;1.00
77692;PMS5003;66984;47.404;18.836;2023-04-03T04:11:41;4.00;4.00;1.00
77692;PMS5003;66984;47.404;18.836;2023-04-03T04:12:44;3.75;3.75;2.00
77692;PMS5003;66984;47.404;18.836;2023-04-03T04:13:46;6.00;5.00;1.00
77692;PMS5003;66984;47.404;18.836;2023-04-03T04:14:49;4.50;4.00;2.00
77692;PMS5003;66984;47.404;18.836;2023-04-03T04:15:52;4.00;4.00;2.00
77692;PMS5003;66984;47.404;18.836;2023-04-03T04:16:55;4.75;4.00;1.00
77692;PMS5003;66984;47.404;18.836;2023-04-03T04:17:58;3.50;3.50;1.00
77692;PMS5003;66984;47.404;18.836;2023-04-03T04:19:01;5.00;4.00;1.00
77692;PMS5003;66984;47.404;18.836;2023-04-03T04:20:06;5.00;4.00;0.00
77692;PMS5003;66984;47.404;18.836;2023-04-03T04:21:11;3.50;3.00;0.00
77692;PMS5003;66984;47.404;18.836;2023-04-03T04:22:13;5.00;5.00;0.00
77692;PMS5003;66984;47.404;18.836;2023-04-03T04:23:17;4.75;4.25;0.00
77692;PMS5003;66984;47.404;18.836;2023-04-03T04:24:20;3.50;3.50;0.00
77692;PMS5003;66984;47.404;18.836;2023-04-03T04:25:25;5.00;5.00;0.00
77692;PMS5003;66984;47.404;18.836;2023-04-03T04:26:28;5.00;5.00;0.00
77692;PMS5003;66984;47.404;18.836;2023-04-03T04:27:30;4.00;4.00;0.00
77692;PMS5003;66984;47.404;18.836;2023-04-03T04:28:33;3.50;3.50;1.00
77692;PMS5003;66984;47.404;18.836;2023-04-03T04:29:37;4.00;4.00;1.50
77692;PMS5003;66984;47.404;18.836;2023-04-03T04:30:40;4.25;4.25;1.00
77692;PMS5003;66984;47.404;18.836;2023-04-03T04:31:43;6.50;6.25;3.50
77692;PMS5003;66984;47.404;18.836;2023-04-03T04:32:46;5.50;5.50;2.00
77692;PMS5003;66984;47.404;18.836;2023-04-03T04:33:49;5.25;4.25;1.00
77692;PMS5003;66984;47.404;18.836;2023-04-03T04:34:52;5.00;5.00;1.00
77692;PMS5003;66984;47.404;18.836;2023-04-03T04:35:55;4.00;4.00;2.00
77692;PMS5003;66984;47.404;18.836;2023-04-03T04:36:58;4.00;4.00;1.75
77692;PMS5003;66984;47.404;18.836;2023-04-03T04:38:01;3.50;3.50;0.00
77692;PMS5003;66984;47.404;18.836;2023-04-03T04:39:05;6.25;5.75;1.00
77692;PMS5003;66984;47.404;18.836;2023-04-03T04:40:08;4.00;3.25;1.00
77692;PMS5003;66984;47.404;18.836;2023-04-03T04:41:11;5.00;4.00;1.00
77692;PMS5003;66984;47.404;18.836;2023-04-03T04:42:15;5.00;5.00;1.00
77692;PMS5003;66984;47.404;18.836;2023-04-03T04:43:18;4.25;4.25;2.00
77692;PMS5003;66984;47.404;18.836;2023-04-03T04:44:21;3.75;3.50;2.00
77692;PMS5003;66984;47.404;18.836;2023-04-03T04:45:24;4.75;4.50;2.00
77692;PMS5003;66984;47.404;18.836;2023-04-03T04:46:27;6.00;6.00;2.00
77692;PMS5003;66984;47.404;18.836;2023-04-03T04:47:30;7.00;6.75;1.25
77692;PMS5003;66984;47.404;18.836;2023-04-03T04:48:33;3.00;3.00;1.00
77692;PMS5003;66984;47.404;18.836;2023-04-03T04:49:37;3.00;3.00;0.00
77692;PMS5003;66984;47.404;18.836;2023-04-03T04:50:40;4.00;4.00;1.00
77692;PMS5003;66984;47.404;18.836;2023-04-03T04:51:42;3.00;3.00;1.00
77692;PMS5003;66984;47.404;18.836;2023-04-03T04:52:52;4.00;3.00;1.00
77692;PMS5003;66984;47.404;18.836;2023-04-03T04:53:55;4.00;4.00;2.00
77692;PMS5003;66984;47.404;18.836;2023-04-03T04:54:58;4.00;4.00;2.00
77692;PMS5003;66984;47.404;18.836;2023-04-03T04:56:02;5.25;5.25;1.00
77692;PMS5003;66984;47.404;18.836;2023-04-03T04:57:05;4.00;4.00;0.50
77692;PMS5003;66984;47.404;18.836;2023-04-03T04:58:08;5.00;5.00;1.00
77692;PMS5003;66984;47.404;18.836;2023-04-03T04:59:11;4.25;4.25;2.00
77692;PMS5003;66984;47.404;18.836;2023-04-03T05:00:14;6.00;5.00;2.00
77692;PMS5003;66984;47.404;18.836;2023-04-03T05:01:17;5.00;5.00;2.00
77692;PMS5003;66984;47.404;18.836;2023-04-03T05:02:21;5.00;4.00;1.00
77692;PMS5003;66984;47.404;18.836;2023-04-03T05:03:23;5.25;5.25;1.00
77692;PMS5003;66984;47.404;18.836;2023-04-03T05:04:26;4.00;4.00;2.00
77692;PMS5003;66984;47.404;18.836;2023-04-03T05:05:29;3.75;3.75;1.00
77692;PMS5003;66984;47.404;18.836;2023-04-03T05:06:32;4.00;4.00;1.00
77692;PMS5003;66984;47.404;18.836;2023-04-03T05:07:37;3.75;3.00;2.00
77692;PMS5003;66984;47.404;18.836;2023-04-03T05:08:40;6.00;6.00;2.00
77692;PMS5003;66984;47.404;18.836;2023-04-03T05:09:43;4.00;4.00;1.75
77692;PMS5003;66984;47.404;18.836;2023-04-03T05:10:46;3.25;3.25;2.00
77692;PMS5003;66984;47.404;18.836;2023-04-03T05:11:49;4.00;4.00;1.00
77692;PMS5003;66984;47.404;18.836;2023-04-03T05:12:52;5.00;5.00;1.00
77692;PMS5003;66984;47.404;18.836;2023-04-03T05:13:55;3.00;3.00;0.00
77692;PMS5003;66984;47.404;18.836;2023-04-03T05:14:58;4.00;3.75;0.50
77692;PMS5003;66984;47.404;18.836;2023-04-03T05:16:02;5.00;5.00;1.75
77692;PMS5003;66984;47.404;18.836;2023-04-03T05:17:05;3.00;3.00;2.00
77692;PMS5003;66984;47.404;18.836;2023-04-03T05:18:08;4.00;3.00;1.00
77692;PMS5003;66984;47.404;18.836;2023-04-03T05:19:11;5.00;4.00;1.00
77692;PMS5003;66984;47.404;18.836;2023-04-03T05:20:14;6.75;6.00;2.00
77692;PMS5003;66984;47.404;18.836;2023-04-03T05:21:17;5.75;5.00;2.00
77692;PMS5003;66984;47.404;18.836;2023-04-03T05:22:21;5.00;5.00;1.00
77692;PMS5003;66984;47.404;18.836;2023-04-03T05:23:24;4.00;4.00;1.00
77692;PMS5003;66984;47.404;18.836;2023-04-03T05:24:27;4.50;3.75;1.00
77692;PMS5003;66984;47.404;18.836;2023-04-03T05:25:30;4.00;4.00;0.00
77692;PMS5003;66984;47.404;18.836;2023-04-03T05:26:33;4.00;4.00;0.00
77692;PMS5003;66984;47.404;18.836;2023-04-03T05:27:36;5.00;5.00;0.00
77692;PMS5003;66984;47.404;18.836;2023-04-03T05:28:39;3.50;3.00;0.00
77692;PMS5003;66984;47.404;18.836;2023-04-03T05:29:42;5.00;4.00;0.00
77692;PMS5003;66984;47.404;18.836;2023-04-03T05:30:52;5.25;5.25;0.00
77692;PMS5003;66984;47.404;18.836;2023-04-03T05:31:56;4.75;4.75;0.00
77692;PMS5003;66984;47.404;18.836;2023-04-03T05:33:00;7.00;5.00;1.00
77692;PMS5003;66984;47.404;18.836;2023-04-03T05:34:02;5.00;4.25;2.00
77692;PMS5003;66984;47.404;18.836;2023-04-03T05:35:06;6.25;5.00;2.00
77692;PMS5003;66984;47.404;18.836;2023-04-03T05:36:10;6.00;6.00;2.00
77692;PMS5003;66984;47.404;18.836;2023-04-03T05:37:13;5.00;5.00;3.50
77692;PMS5003;66984;47.404;18.836;2023-04-03T05:38:16;4.00;4.00;2.00
77692;PMS5003;66984;47.404;18.836;2023-04-03T05:39:18;4.50;4.50;1.00
77692;PMS5003;66984;47.404;18.836;2023-04-03T05:40:21;4.00;4.00;1.00
77692;PMS5003;66984;47.404;18.836;2023-04-03T05:41:24;3.50;3.50;0.00
77692;PMS5003;66984;47.404;18.836;2023-04-03T05:42:27;4.00;4.00;1.00
77692;PMS5003;66984;47.404;18.836;2023-04-03T05:43:30;4.00;4.00;3.00
77692;PMS5003;66984;47.404;18.836;2023-04-03T05:44:33;4.25;4.25;3.00
77692;PMS5003;66984;47.404;18.836;2023-04-03T05:45:36;3.50;3.50;1.00
77692;PMS5003;66984;47.404;18.836;2023-04-03T05:46:39;6.00;5.00;2.00
77692;PMS5003;66984;47.404;18.836;2023-04-03T05:47:41;6.00;5.00;2.50
77692;PMS5003;66984;47.404;18.836;2023-04-03T05:48:44;4.00;4.00;1.25
77692;PMS5003;66984;47.404;18.836;2023-04-03T05:49:47;4.00;4.00;2.00
77692;PMS5003;66984;47.404;18.836;2023-04-03T05:50:50;7.00;5.00;3.00
77692;PMS5003;66984;47.404;18.836;2023-04-03T05:51:56;6.00;6.00;2.00
77692;PMS5003;66984;47.404;18.836;2023-04-03T05:52:59;5.00;5.00;2.00
77692;PMS5003;66984;47.404;18.836;2023-04-03T05:54:16;4.75;4.75;1.00
77692;PMS5003;66984;47.404;18.836;2023-04-03T05:55:25;4.50;4.00;1.00
77692;PMS5003;66984;47.404;18.836;2023-04-03T05:56:28;4.00;3.00;2.00
77692;PMS5003;66984;47.404;18.836;2023-04-03T05:57:31;4.25;4.00;1.00
77692;PMS5003;66984;47.404;18.836;2023-04-03T05:58:34;8.00;8.00;3.00
77692;PMS5003;66984;47.404;18.836;2023-04-03T05:59:37;22.75;22.75;13.25
77692;PMS5003;66984;47.404;18.836;2023-04-03T06:00:40;13.75;12.75;6.00
77692;PMS5003;66984;47.404;18.836;2023-04-03T06:01:43;8.00;5.75;2.00
77692;PMS5003;66984;47.404;18.836;2023-04-03T06:02:46;7.00;7.00;2.00
77692;PMS5003;66984;47.404;18.836;2023-04-03T06:03:49;7.00;6.75;3.00
77692;PMS5003;66984;47.404;18.836;2023-04-03T06:04:53;10.00;9.00;6.00
77692;PMS5003;66984;47.404;18.836;2023-04-03T06:05:58;9.00;8.00;3.00
77692;PMS5003;66984;47.404;18.836;2023-04-03T06:07:02;23.50;22.25;14.50
77692;PMS5003;66984;47.404;18.836;2023-04-03T06:08:05;17.25;16.75;9.75
77692;PMS5003;66984;47.404;18.836;2023-04-03T06:09:08;18.75;18.75;11.00
77692;PMS5003;66984;47.404;18.836;2023-04-03T06:10:12;13.00;13.00;4.75
77692;PMS5003;66984;47.404;18.836;2023-04-03T06:11:16;9.50;9.50;3.00